This is the latest recevied weather packets stored in our database for station/object DG9VH-13. If no packets are shown the sender has not sent any weather packets the latest 10 day(s).
| Time | Temp. | Humidity | Pressure | Rain* | Wind** | Luminosity | Snow |
|---|---|---|---|---|---|---|---|
| 1788261001 | 23.89° C | 49% | 1004.2 hPa | - | - | - | - |
| 1788260401 | 23.89° C | 50% | 1004.3 hPa | - | - | - | - |
| 1788259803 | 23.89° C | 51% | 1004.2 hPa | - | - | - | - |
| 1788259202 | 22.22° C | 55% | 1004.4 hPa | - | - | - | - |
| 1788258601 | 22.78° C | 54% | 1004.5 hPa | - | - | - | - |
| 1788258002 | 22.22° C | 54% | 1004.6 hPa | - | - | - | - |
| 1788257402 | 22.78° C | 53% | 1004.7 hPa | - | - | - | - |
| 1788256801 | 22.78° C | 53% | 1004.6 hPa | - | - | - | - |
| 1788256201 | 23.33° C | 52% | 1004.7 hPa | - | - | - | - |
| 1788255601 | 23.89° C | 51% | 1004.8 hPa | - | - | - | - |
| 1788255002 | 23.33° C | 52% | 1004.8 hPa | - | - | - | - |
| 1788254408 | 23.89° C | 51% | 1004.9 hPa | - | - | - | - |
| 1788253802 | 24.44° C | 51% | 1004.8 hPa | - | - | - | - |
| 1788253203 | 25° C | 49% | 1004.6 hPa | - | - | - | - |
| 1788252602 | 25° C | 49% | 1004.6 hPa | - | - | - | - |
| 1788252002 | 25.56° C | 49% | 1004.6 hPa | - | - | - | - |
| 1788251403 | 25.56° C | 48% | 1004.6 hPa | - | - | - | - |
| 1788250802 | 27.22° C | 44% | - | - | - | - | - |
| 1788250202 | 28.33° C | 43% | 1001.3 hPa | - | - | - | - |
| 1788249603 | 25.56° C | 47% | 1005.5 hPa | - | - | - | - |
| 1788249002 | 30° C | 40% | 1006.7 hPa | - | - | - | - |
| 1788248402 | 28.89° C | 42% | 1008.1 hPa | - | - | - | - |
| 1788247801 | 30.56° C | 39% | 1008.4 hPa | - | - | - | - |
| 1788247202 | 30.56° C | 40% | 1006.5 hPa | - | - | - | - |
| 1788246603 | 27.78° C | 46% | 1006.9 hPa | - | - | - | - |
* Rain since midnight (hover to see other rain measurements)
** Current wind speed in m/s (hover to see current wind gust speed)